Flight Track Log - Related Links

Times and Time Zones

All times are in EDT time to prevent confusion due to time zone crossing. See the SWA3853 flight status page for this flight to view local times or setup timezone preferences in your user account.

Time Position Orientation Groundspeed Altitude Reporting Facility
EDT Latitude Longitude Course Direction KTS MPH feet Rate Location/Type
Wed 12:54:16 PM 36.1500 -86.7667 270° West 227 261 3,200  Level Nashville TRACON
Wed 12:55:17 PM 36.1667 -86.8500 284° West 271 312 6,200 3,471 Climbing Nashville TRACON
Wed 12:56:17 PM 36.2000 -86.9333 296° West 273 314 10,200 3,241 Climbing Nashville TRACON
Wed 12:56:44 PM 36.2067 -86.9900 278° West 290 334 10,900 2,759 Climbing Memphis Center
Wed 12:57:44 PM 36.2367 -87.1044 288° West 335 386 14,200 3,350 Climbing Memphis Center
Wed 12:58:44 PM 36.2689 -87.2217 289° West 357 411 17,600 3,100 Climbing Memphis Center
Wed 12:59:44 PM 36.2908 -87.3469 282° West 368 423 20,400 2,800 Climbing Memphis Center
Wed 01:00:44 PM 36.3128 -87.4775 282° West 381 438 23,200 2,450 Climbing Memphis Center
Wed 01:01:44 PM 36.3528 -87.5919 293° West 393 452 25,300 2,150 Climbing Memphis Center
Wed 01:02:44 PM 36.4097 -87.7164 300° West 403 464 27,500 1,350 Climbing Memphis Center
Wed 01:03:44 PM 36.4667 -87.8411 300° West 412 474 28,000 1,200 Climbing Memphis Center
Wed 01:04:44 PM 36.5211 -87.9683 298° West 421 484 29,900 2,100 Climbing Memphis Center
Wed 01:05:44 PM 36.5797 -88.0933 300° West 421 484 32,200 2,000 Climbing Memphis Center
Wed 01:06:44 PM 36.6383 -88.2158 301° West 416 479 33,900 1,650 Climbing Memphis Center
Wed 01:07:44 PM 36.6678 -88.3600 284° West 411 473 35,500 1,600 Climbing Memphis Center
Wed 01:08:44 PM 36.6908 -88.5017 282° West 416 479 37,100 1,500 Climbing Memphis Center
Wed 01:09:44 PM 36.7136 -88.6408 282° West 424 488 38,500 1,200 Climbing Memphis Center
Wed 01:10:44 PM 36.7342 -88.7828 280° West 424 488 39,500 750 Climbing Memphis Center
Wed 01:11:44 PM 36.7569 -88.9222 282° West 424 488 40,000 250 Climbing Memphis Center
Wed 01:12:44 PM 36.7792 -89.0642 281° West 424 488 40,000  Level Memphis Center
Wed 01:13:44 PM 36.7994 -89.2064 280° West 424 488 40,000  Level Memphis Center
Wed 01:14:44 PM 36.8236 -89.3461 282° West 424 488 40,000  Level Memphis Center
Wed 01:15:44 PM 36.8414 -89.4858 279° West 424 488 40,000  Level Memphis Center
Wed 01:16:44 PM 36.8631 -89.6308 281° West 424 488 40,000  Level Memphis Center
Wed 01:17:44 PM 36.8825 -89.7681 280° West 424 488 40,000  Level Memphis Center
Wed 01:18:44 PM 36.9039 -89.9106 281° West 419 482 40,000  Level Memphis Center
Wed 01:19:44 PM 36.9231 -90.0506 280° West 419 482 40,000  Level Memphis Center
Wed 01:20:44 PM 36.9442 -90.1881 281° West 414 476 40,000  Level Memphis Center
Wed 01:21:44 PM 36.9611 -90.3283 279° West 409 471 40,000  Level Memphis Center
Wed 01:23:45 PM 37.0031 -90.5942 281° West 407 468 40,000  Level Kansas City Center
Wed 01:24:47 PM 37.0267 -90.7636 280° West 412 474 40,000  Level Kansas City Center
Wed 01:25:49 PM 37.0461 -90.9036 280° West 410 472 40,000  Level Kansas City Center
Wed 01:26:51 PM 37.0661 -91.0433 280° West 408 470 40,000  Level Kansas City Center
Wed 01:27:53 PM 37.0828 -91.1767 279° West 411 473 40,000  Level Kansas City Center
Wed 01:28:55 PM 37.1056 -91.3461 280° West 411 473 40,000  Level Kansas City Center
Wed 01:29:57 PM 37.1556 -91.4756 296° West 412 474 40,000  Level Kansas City Center
Wed 01:30:59 PM 37.2094 -91.6011 298° West 410 472 40,000  Level Kansas City Center
Wed 01:32:01 PM 37.2642 -91.7272 299° West 409 471 40,000  Level Kansas City Center
Wed 01:33:03 PM 37.3197 -91.8542 299° West 412 474 40,000  Level Kansas City Center
Wed 01:34:05 PM 37.3736 -91.9800 298° West 409 471 40,000  Level Kansas City Center
Wed 01:35:08 PM 37.4281 -92.1064 299° West 408 470 40,000  Level Kansas City Center
Wed 01:36:09 PM 37.4819 -92.2333 298° West 409 471 40,000  Level Kansas City Center
Wed 01:37:11 PM 37.5472 -92.3869 298° West 410 472 40,000  Level Kansas City Center
Wed 01:38:13 PM 37.6028 -92.5164 298° West 413 475 40,000  Level Kansas City Center
Wed 01:39:15 PM 37.6581 -92.6506 298° West 418 481 40,000  Level Kansas City Center
Wed 01:40:17 PM 37.7125 -92.7806 298° West 418 481 40,000  Level Kansas City Center
Wed 01:41:19 PM 37.7694 -92.9136 298° West 422 486 40,000  Level Kansas City Center
Wed 01:42:21 PM 37.8256 -93.0486 298° West 427 491 40,000  Level Kansas City Center
Wed 01:43:23 PM 37.8819 -93.1850 298° West 432 497 40,000  Level Kansas City Center
Wed 01:44:25 PM 37.9375 -93.3183 298° West 428 493 40,000 -1,016 Level Kansas City Center
Wed 01:45:27 PM 38.0025 -93.4744 298° West 418 481 37,900 -2,274 Descending Kansas City Center
Wed 01:46:29 PM 38.0536 -93.6008 297° West 405 466 35,300 -2,710 Descending Kansas City Center
Wed 01:47:31 PM 38.1053 -93.7283 297° West 404 465 32,300 -2,565 Descending Kansas City Center
Wed 01:48:33 PM 38.2031 -93.8058 328° Northwest 413 475 30,000 -2,274 Descending Kansas City Center
Wed 01:49:35 PM 38.3097 -93.8694 335° Northwest 421 484 27,600 -2,274 Descending Kansas City Center
Wed 01:50:37 PM 38.4164 -93.9281 337° Northwest 417 480 25,300 -2,274 Descending Kansas City Center
Wed 01:51:39 PM 38.5258 -93.9908 336° Northwest 407 468 22,900 -2,274 Descending Kansas City Center
Wed 01:52:41 PM 38.6325 -94.0542 335° Northwest 382 440 20,600 -2,081 Descending Kansas City Center
Wed 01:53:43 PM 38.7175 -94.1153 331° Northwest 369 425 18,600 -1,935 Descending Kansas City Center
Wed 01:54:45 PM 38.7886 -94.1964 318° Northwest 358 412 16,600 -2,081 Descending Kansas City Center
Wed 01:55:47 PM 38.8714 -94.2864 320° Northwest 350 403 14,300 -2,032 Descending Kansas City Center
Wed 01:56:49 PM 38.9394 -94.3608 320° Northwest 338 389 12,400 -1,113 Descending Kansas City Center
Wed 01:57:51 PM 39.0150 -94.4417 320° Northwest 316 364 12,000 -194 Descending Kansas City Center
Wed 01:58:53 PM 39.0728 -94.5050 320° Northwest 289 333 12,000  Level Kansas City Center
Wed 01:59:55 PM 39.1378 -94.5756 320° Northwest 274 315 12,000 -339 Level Kansas City Center
Wed 02:00:57 PM 39.1922 -94.6297 322° Northwest 260 299 11,300 -1,200 Descending Kansas City Center
Wed 02:02:00 PM 39.2675 -94.6094 12° North 252 290 9,500 -1,680 Descending Kansas City Center
Wed 02:03:02 PM 39.3317 -94.5878 15° North 249 287 7,800 -1,790 Descending Kansas City Center
Wed 02:04:04 PM 39.4064 -94.5619 15° North 250 288 5,800 -1,742 Descending Kansas City Center
Wed 02:05:06 PM 39.4281 -94.6150 298° West 224 258 4,200 -1,597 Descending Kansas City Center
Wed 02:06:08 PM 39.3936 -94.6781 235° Southwest 190 219 2,500 -1,113 Descending Kansas City Center
Wed 02:07:10 PM 39.3556 -94.6869 190° South 145 167 1,900 -677 Descending Kansas City Center
Wed 02:08:12 PM 39.3133 -94.6997 193° South 139 160 1,100 -774 Descending Kansas City Center

Login

Don't have an account? Register now (free) for customized features, flight alerts, and more!